createdAt,value
2019-05-11T00:00:21.742Z,7.37
2019-05-11T00:05:25.331Z,6.83
2019-05-11T00:10:28.874Z,6.23
2019-05-11T00:15:32.475Z,7.28
2019-05-11T00:20:36.029Z,6.67
2019-05-11T00:25:39.617Z,6.33
2019-05-11T00:30:43.160Z,6.55
2019-05-11T00:35:46.764Z,6.35
2019-05-11T00:40:50.315Z,6.22
2019-05-11T00:45:53.894Z,5.97
2019-05-11T00:50:57.465Z,5.67
2019-05-11T00:56:01.048Z,5.75
2019-05-11T01:01:05.025Z,5.75
2019-05-11T01:06:08.576Z,5.90
2019-05-11T01:11:12.150Z,4.90
2019-05-11T01:16:15.759Z,5.23
2019-05-11T01:21:19.308Z,5.03
2019-05-11T01:26:22.872Z,4.58
2019-05-11T01:31:26.441Z,4.60
2019-05-11T01:36:29.990Z,4.80
2019-05-11T01:41:33.576Z,5.10
2019-05-11T01:46:37.127Z,4.45
2019-05-11T01:51:40.743Z,4.12
2019-05-11T01:56:44.493Z,4.60
2019-05-11T02:01:48.455Z,4.90
2019-05-11T02:06:52.002Z,4.55
2019-05-11T02:11:55.602Z,4.20
2019-05-11T02:16:59.168Z,4.62
2019-05-11T02:22:02.760Z,4.55
2019-05-11T02:27:06.373Z,4.70
2019-05-11T02:32:09.928Z,5.47
2019-05-11T02:37:13.498Z,5.05
2019-05-11T02:42:17.092Z,5.60
2019-05-11T02:47:20.670Z,6.93
2019-05-11T02:52:24.323Z,4.90
2019-05-11T02:57:27.892Z,4.60
2019-05-11T03:02:31.464Z,5.03
2019-05-11T03:07:35.039Z,4.58
2019-05-11T03:12:38.658Z,4.15
2019-05-11T03:17:42.245Z,4.40
2019-05-11T03:22:45.832Z,4.25
2019-05-11T03:27:49.494Z,4.25
2019-05-11T03:32:53.094Z,4.62
2019-05-11T03:37:56.644Z,3.85
2019-05-11T03:43:00.260Z,3.62
2019-05-11T03:48:03.813Z,4.00
2019-05-11T03:53:07.386Z,3.47
2019-05-11T03:58:11.002Z,3.30
2019-05-11T04:03:14.561Z,3.40
2019-05-11T04:08:18.143Z,3.55
2019-05-11T04:13:21.739Z,3.52
2019-05-11T04:18:25.291Z,3.40
2019-05-11T04:23:28.849Z,3.33
2019-05-11T04:28:32.412Z,3.27
2019-05-11T04:33:35.979Z,3.50
2019-05-11T04:38:39.542Z,3.55
2019-05-11T04:43:43.129Z,3.75
2019-05-11T04:48:46.720Z,4.05
2019-05-11T04:53:50.298Z,3.47
2019-05-11T04:58:53.884Z,3.55
2019-05-11T05:04:12.252Z,3.15
2019-05-11T05:09:03.684Z,3.50
2019-05-11T05:14:10.165Z,3.67
2019-05-11T05:19:12.855Z,3.27
2019-05-11T05:24:16.393Z,3.60
2019-05-11T05:29:20.012Z,3.85
2019-05-11T05:34:23.556Z,3.77
2019-05-11T05:39:27.144Z,3.60
2019-05-11T05:44:30.710Z,4.05
2019-05-11T05:49:34.278Z,3.35
2019-05-11T05:54:37.879Z,3.92
2019-05-11T05:59:41.421Z,3.58
2019-05-11T06:04:45.008Z,4.70
2019-05-11T06:09:48.559Z,4.08
2019-05-11T06:14:52.153Z,3.70
2019-05-11T06:19:55.734Z,3.98
2019-05-11T06:24:59.286Z,3.80
2019-05-11T06:30:02.891Z,3.40
2019-05-11T06:35:07.351Z,3.60
2019-05-11T06:40:10.916Z,2.80
2019-05-11T06:45:14.476Z,2.70
2019-05-11T06:50:18.054Z,2.92
2019-05-11T06:55:21.620Z,2.90
2019-05-11T07:00:25.235Z,3.40
2019-05-11T07:05:28.772Z,3.10
2019-05-11T07:10:32.341Z,3.50
2019-05-11T07:15:35.916Z,3.15
2019-05-11T07:20:50.220Z,2.70
2019-05-11T07:25:44.812Z,2.70
2019-05-11T07:30:48.405Z,2.60
2019-05-11T07:35:52.657Z,2.62
2019-05-11T07:40:58.199Z,2.83
2019-05-11T07:46:02.069Z,2.80
2019-05-11T07:51:08.931Z,2.87
2019-05-11T07:56:12.633Z,2.60
2019-05-11T08:01:18.920Z,2.47
2019-05-11T08:06:22.374Z,2.40
2019-05-11T08:11:31.211Z,2.37
2019-05-11T08:16:33.312Z,2.45
2019-05-11T08:21:38.826Z,2.30
2019-05-11T08:26:42.358Z,2.50
2019-05-11T08:31:45.959Z,2.35
2019-05-11T08:36:49.525Z,2.35
2019-05-11T08:41:53.103Z,2.25
2019-05-11T08:46:58.251Z,2.20
2019-05-11T08:52:02.085Z,2.10
2019-05-11T08:57:07.998Z,2.45
2019-05-11T09:02:10.967Z,2.40
2019-05-11T09:07:14.543Z,2.50
2019-05-11T09:12:18.422Z,2.20
2019-05-11T09:17:22.230Z,2.62
2019-05-11T09:22:28.116Z,4.20
2019-05-11T09:27:32.150Z,2.50
2019-05-11T09:32:38.487Z,2.30
2019-05-11T09:37:41.624Z,4.45
2019-05-11T09:42:45.216Z,3.80
2019-05-11T09:47:49.590Z,2.77
2019-05-11T09:52:53.421Z,2.90
2019-05-11T09:57:57.994Z,2.60
2019-05-11T10:03:01.769Z,2.67
2019-05-11T10:08:07.719Z,10.68
2019-05-11T10:13:10.681Z,7.37
2019-05-11T10:18:14.269Z,5.65
2019-05-11T10:23:18.692Z,5.73
2019-05-11T10:28:22.421Z,5.72
2019-05-11T10:33:28.157Z,4.62
2019-05-11T10:38:51.578Z,4.62
2019-05-11T10:43:57.789Z,3.72
2019-05-11T10:49:01.356Z,3.22
2019-05-11T10:54:05.180Z,3.50
2019-05-11T10:59:08.766Z,17.43
2019-05-11T11:04:13.946Z,7.35
2019-05-11T11:09:17.890Z,5.40
2019-05-11T11:14:21.653Z,5.05
2019-05-11T11:19:28.922Z,4.40
2019-05-11T11:24:32.992Z,4.80
2019-05-11T11:29:38.702Z,4.30
2019-05-11T11:34:41.905Z,4.03
2019-05-11T11:39:47.533Z,4.20
2019-05-11T11:44:50.767Z,4.10
2019-05-11T11:49:54.384Z,3.90
2019-05-11T11:54:58.631Z,4.00
2019-05-11T12:00:02.376Z,3.87
2019-05-11T12:05:08.866Z,3.90
2019-05-11T12:10:12.706Z,3.80
2019-05-11T12:15:17.818Z,3.50
2019-05-11T12:20:21.553Z,3.58
2019-05-11T12:25:27.608Z,3.50
2019-05-11T12:30:31.210Z,3.33
2019-05-11T12:35:34.786Z,4.53
2019-05-11T12:40:38.918Z,3.95
2019-05-11T12:45:42.641Z,3.27
2019-05-11T12:50:48.378Z,3.45
2019-05-11T12:55:51.637Z,3.27
2019-05-11T13:07:39.164Z,3.20
2019-05-11T13:17:42.546Z,4.30
2019-05-11T13:27:46.137Z,5.05
2019-05-11T13:37:49.741Z,4.47
2019-05-11T13:47:55.913Z,5.20
2019-05-11T13:57:58.656Z,11.28
2019-05-11T14:08:03.761Z,7.03
2019-05-11T14:18:09.375Z,6.20
2019-05-11T14:28:12.614Z,5.20
2019-05-11T14:38:18.565Z,5.17
2019-05-11T14:48:26.749Z,4.97
2019-05-11T14:58:27.977Z,5.00
2019-05-11T15:08:31.695Z,4.58
2019-05-11T15:18:41.311Z,4.42
2019-05-11T15:28:40.667Z,4.60
2019-05-11T15:38:44.243Z,4.20
2019-05-11T15:48:56.623Z,5.10
2019-05-11T15:58:53.142Z,4.58
2019-05-11T16:08:58.557Z,7.60
2019-05-11T16:19:13.562Z,7.53
2019-05-11T16:29:08.538Z,7.87
2019-05-11T16:39:12.680Z,7.70
2019-05-11T16:49:26.153Z,7.67
2019-05-11T16:59:21.619Z,7.42
2019-05-11T17:09:25.210Z,7.03
2019-05-11T17:19:42.185Z,7.47
2019-05-11T17:29:34.259Z,7.62
2019-05-11T17:39:38.561Z,7.42
2019-05-11T17:49:56.188Z,6.90
2019-05-11T17:59:47.735Z,7.08
2019-05-11T18:09:51.294Z,10.32
2019-05-11T18:19:54.873Z,8.55
2019-05-11T18:29:58.440Z,7.92
2019-05-11T18:40:02.074Z,8.00
2019-05-11T18:50:05.863Z,7.55
2019-05-11T19:00:09.416Z,7.26
2019-05-11T19:10:13.001Z,6.10
2019-05-11T19:20:17.842Z,6.92
2019-05-11T19:30:21.595Z,7.58
2019-05-11T19:40:25.401Z,10.08
2019-05-11T19:50:28.971Z,8.20
2019-05-11T20:00:32.547Z,8.00
2019-05-11T20:10:38.232Z,8.18
2019-05-11T20:20:41.689Z,9.20
2019-05-11T20:30:45.302Z,7.78
2019-05-11T20:40:48.901Z,10.30
2019-05-11T20:50:52.526Z,8.10
2019-05-11T21:00:56.114Z,8.47
2019-05-11T21:10:59.817Z,8.35
2019-05-11T21:21:03.399Z,8.95
2019-05-11T21:31:08.058Z,9.18
2019-05-11T21:41:12.646Z,7.92
2019-05-11T21:51:18.136Z,8.10
2019-05-11T22:01:21.648Z,7.30
2019-05-11T22:11:25.448Z,7.50
2019-05-11T22:21:29.174Z,7.70
2019-05-11T22:31:32.822Z,6.85
2019-05-11T22:41:39.393Z,6.22
2019-05-11T22:51:42.051Z,5.90
2019-05-11T23:01:48.170Z,6.47
2019-05-11T23:11:50.906Z,6.35
2019-05-11T23:21:54.473Z,6.45
2019-05-11T23:31:58.438Z,6.65
2019-05-11T23:42:02.058Z,7.03
2019-05-11T23:52:07.633Z,7.72
